Latest Weather Observations for Renmark Airport

IDS60801

Issued at 6:02 pm CDT Thursday 8 December 2016 (issued every 30 minutes, with the page automatically refreshed every 10 minutes)

About weather observations | Map of weather stations | Latest weather observations for SA | Other Formats
Station Details ID: 024048 Name: RENMARK AERO Lat: -34.20 Lon: 140.68 Height: 31.5 m
Data from the previous 72 hours. | See also: Recent months at Renmark Airport
Date/Time
CDT
Temp
°C
App
Temp
°C
Dew
Point
°C
Rel
Hum
%
Delta-T
°C
Wind Press
QNH
hPa
Press
MSL
hPa
Rain since
9am
mm
Dir  Spd
km/h
Gust
km/h
Spd
kts
Gust
kts
08/06:00pm 21.1 13.6 4.6 34 8.1 SW 33 54 18 29 1009.4 1009.3 0.0
08/05:32pm 20.8 12.5 6.0 38 7.4 SSW 39 57 21 31 1008.7 1008.6 0.0
08/05:30pm 21.1 12.4 6.2 38 7.5 SSW 41 57 22 31 1008.8 1008.7 0.0
08/05:00pm 21.5 12.9 4.6 33 8.3 SW 39 59 21 32 1008.2 1008.1 0.0
08/04:30pm 21.8 12.6 6.5 37 7.8 SW 44 63 24 34 1007.6 1007.5 0.0
08/04:27pm 22.3 13.2 5.7 34 8.3 SW 43 61 23 33 1007.5 1007.4 0.0
08/04:00pm 23.9 14.5 -2.6 17 11.5 WSW 37 69 20 37 1007.2 1007.1 0.0
08/03:30pm 24.0 13.8 -0.3 20 11.1 WSW 43 65 23 35 1007.2 1007.1 0.0
08/03:00pm 23.1 13.7 0.2 22 10.5 WSW 39 65 21 35 1007.1 1007.0 0.0
08/02:49pm 23.6 13.8 0.0 21 10.7 SW 41 59 22 32 1007.2 1007.1 0.0
08/02:30pm 23.1 13.4 2.6 26 9.8 WSW 43 57 23 31 1007.5 1007.4 0.0
08/02:20pm 22.3 12.6 2.9 28 9.2 WSW 43 69 23 37 1007.4 1007.3 0.0
08/02:00pm 24.6 15.4 1.5 22 10.9 WSW 39 52 21 28 1007.5 1007.4 0.0
08/01:30pm 23.0 14.8 2.5 26 9.8 WSW 35 56 19 30 1007.4 1007.3 0.0
08/01:00pm 21.2 12.8 5.6 36 7.8 SW 39 61 21 33 1007.5 1007.4 0.0
08/12:37pm 21.3 13.1 4.8 34 8.1 WSW 37 56 20 30 1007.5 1007.4 0.0
08/12:30pm 21.3 11.9 4.4 33 8.3 SW 43 56 23 30 1007.5 1007.4 0.0
08/12:00pm 22.6 15.2 5.1 32 8.7 WSW 33 52 18 28 1007.1 1007.0 0.0
08/11:31am 21.5 14.0 4.6 33 8.3 SW 33 54 18 29 1006.9 1006.8 0.0
08/11:30am 21.9 14.5 4.9 33 8.4 SW 33 50 18 27 1006.9 1006.8 0.0
08/11:04am 20.9 12.4 5.3 36 7.7 WSW 39 57 21 31 1007.0 1006.9 0.0
08/11:00am 20.5 12.4 5.3 37 7.5 WSW 37 54 20 29 1007.0 1006.9 0.0
08/10:53am 22.2 14.2 5.6 34 8.3 WSW 37 56 20 30 1006.9 1006.8 0.0
08/10:30am 20.4 12.5 6.4 40 7.1 WSW 37 52 20 28 1006.7 1006.6 0.0
08/10:00am 20.0 11.8 6.7 42 6.7 SW 39 65 21 35 1006.5 1006.4 0.0
08/09:34am 19.6 11.6 7.4 45 6.2 WSW 39 57 21 31 1006.3 1006.2 0.0
08/09:30am 19.0 10.5 7.1 46 6.0 WSW 41 57 22 31 1006.2 1006.1 0.0
08/09:25am 18.8 11.6 7.6 48 5.7 WSW 35 57 19 31 1006.2 1006.1 0.0
08/09:00am 17.2 9.5 7.3 52 5.0 WSW 37 54 20 29 1006.2 1006.1 0.2
08/08:30am 17.2 9.6 7.5 53 4.9 WSW 37 57 20 31 1005.5 1005.4 0.2
08/08:14am 17.2 11.0 9.4 60 4.1 WSW 32 50 17 27 1005.2 1005.1 0.2
08/08:00am 17.5 12.5 11.1 66 3.5 WSW 28 43 15 23 1005.2 1005.1 0.2
08/07:56am 17.6 11.7 11.2 66 3.5 WSW 33 52 18 28 1005.0 1004.9 0.2
08/07:30am 18.1 13.1 14.0 77 2.4 WSW 33 48 18 26 1004.3 1004.2 0.2
08/07:04am 18.3 13.2 14.8 80 2.0 WSW 35 56 19 30 1003.9 1003.8 0.2
08/07:00am 18.4 13.2 14.5 78 2.3 W 35 50 19 27 1003.9 1003.8 0.2
08/06:49am 18.4 14.5 15.5 83 1.7 WSW 30 48 16 26 1003.6 1003.5 0.2
08/06:30am 18.2 13.5 15.8 86 1.4 WSW 35 48 19 26 1003.1 1003.0 0.2
08/06:00am 20.8 17.6 17.2 80 2.2 W 30 54 16 29 1002.3 1002.2 0.0
08/05:59am 21.8 19.2 17.8 78 2.5 W 28 46 15 25 1002.2 1002.1 0.0
08/05:30am 22.3 19.9 18.3 78 2.5 WNW 28 37 15 20 1001.7 1001.6 0.0
08/05:11am 22.3 19.7 17.9 76 2.7 WNW 28 46 15 25 1001.9 1001.8 0.0
08/05:00am 22.0 19.9 18.0 78 2.5 WNW 26 35 14 19 1001.8 1001.7 0.0
08/04:30am 21.7 19.8 17.7 78 2.5 WNW 24 32 13 17 1001.7 1001.6 0.0
08/04:00am 21.7 19.0 17.5 77 2.6 WNW 28 37 15 20 1001.5 1001.4 0.0
08/03:38am 23.9 18.0 14.6 56 5.5 WNW 39 61 21 33 1001.6 1001.5 0.0
08/03:31am 26.5 19.5 12.5 41 8.1 WNW 41 61 22 33 1001.5 1001.4 0.0
08/03:30am 26.6 19.8 11.9 40 8.5 WNW 39 56 21 30 1001.4 1001.3 0.0
08/03:28am 26.6 19.0 11.9 40 8.4 WNW 43 57 23 31 1001.4 1001.3 0.0
08/03:19am 26.3 19.5 12.0 41 8.2 NW 39 76 21 41 1001.6 1001.5 0.0
08/03:18am 26.3 19.6 12.4 42 8.0 NW 39 76 21 41 1001.6 1001.5 0.0
08/03:16am 26.6 21.1 11.9 40 8.4 NW 32 72 17 39 1001.5 1001.4 0.0
08/03:00am 27.2 22.3 10.0 34 9.6 NW 26 39 14 21 1000.6 1000.5 0.0
08/02:30am 28.0 21.3 8.3 29 10.8 N 33 50 18 27 999.9 999.8 0.0
08/02:00am 27.8 21.3 8.1 29 10.7 N 32 41 17 22 1000.2 1000.1 0.0
08/01:30am 27.7 21.4 7.5 28 10.9 N 30 37 16 20 1000.8 1000.7 0.0
08/01:00am 27.7 21.7 7.0 27 11.0 N 28 39 15 21 1000.8 1000.7 0.0
08/12:30am 27.9 21.8 6.6 26 11.3 N 28 37 15 20 1001.0 1000.9 0.0
08/12:00am 28.1 21.9 6.2 25 11.6 NNE 28 39 15 21 1001.4 1001.3 0.0
 
Date/Time
CDT
Temp
°C
App
Temp
°C
Dew
Point
°C
Rel
Hum
%
Delta-T
°C
Wind Press
QNH
hPa
Press
MSL
hPa
Rain since
9am
mm
Dir  Spd
km/h
Gust
km/h
Spd
kts
Gust
kts
07/11:30pm 28.0 22.2 6.2 25 11.5 NNE 26 37 14 20 1002.4 1002.3 0.0
07/11:00pm 28.0 22.6 6.2 25 11.5 N 24 32 13 17 1002.9 1002.8 0.0
07/10:30pm 28.2 23.3 6.9 26 11.4 N 22 30 12 16 1003.6 1003.5 0.0
07/10:00pm 28.6 23.4 7.2 26 11.5 N 24 32 13 17 1003.7 1003.6 0.0
07/09:30pm 29.1 24.2 7.1 25 11.9 N 22 28 12 15 1004.2 1004.1 0.0
07/09:00pm 29.4 25.0 6.7 24 12.2 N 19 26 10 14 1004.5 1004.4 0.0
07/08:30pm 30.6 25.3 5.1 20 13.4 N 22 33 12 18 1004.6 1004.5 0.0
07/08:00pm 30.9 25.5 4.6 19 13.7 N 22 30 12 16 1004.8 1004.7 0.0
07/07:30pm 31.4 25.6 4.2 18 14.1 N 24 33 13 18 1004.8 1004.7 0.0
07/07:00pm 31.6 26.2 4.4 18 14.2 N 22 30 12 16 1005.1 1005.0 0.0
07/06:30pm 31.9 26.0 3.8 17 14.5 N 24 32 13 17 1005.3 1005.2 0.0
07/06:00pm 33.0 26.5 4.7 17 15.0 N 28 39 15 21 1005.5 1005.4 0.0
07/05:30pm 33.7 27.7 5.3 17 15.2 NNW 26 41 14 22 1006.1 1006.0 0.0
07/05:00pm 34.5 29.8 5.9 17 15.5 NNW 20 32 11 17 1006.6 1006.5 0.0
07/04:30pm 32.3 27.5 5.7 19 14.2 NNW 20 32 11 17 1007.4 1007.3 0.0
07/04:00pm 32.1 27.3 5.6 19 14.1 N 20 30 11 16 1008.1 1008.0 0.0
07/03:30pm 33.7 29.0 6.1 18 15.0 NNE 20 32 11 17 1008.6 1008.5 0.0
07/03:00pm 32.7 28.6 6.1 19 14.3 NW 17 32 9 17 1009.3 1009.2 0.0
07/02:30pm 31.5 26.6 5.1 19 13.9 NNW 20 39 11 21 1010.1 1010.0 0.0
07/02:00pm 30.8 26.5 5.3 20 13.4 WNW 17 28 9 15 1010.8 1010.7 0.0
07/01:30pm 31.6 27.1 5.9 20 13.7 NW 19 33 10 18 1011.4 1011.3 0.0
07/01:00pm 30.0 25.3 5.3 21 12.9 NE 19 28 10 15 1012.0 1011.9 0.0
07/12:30pm 27.8 23.2 6.6 26 11.2 ENE 20 30 11 16 1012.7 1012.6 0.0
07/12:00pm 27.4 24.3 7.3 28 10.7 ENE 13 24 7 13 1013.3 1013.2 0.0
07/11:30am 26.1 23.0 7.2 30 10.0 NNE 13 24 7 13 1013.9 1013.8 0.0
07/11:00am 25.1 20.9 7.3 32 9.4 NNE 19 28 10 15 1014.5 1014.4 0.0
07/10:30am 23.3 20.1 7.0 35 8.4 NNE 13 22 7 12 1015.0 1014.9 0.0
07/10:00am 22.2 18.7 5.6 34 8.3 NE 13 20 7 11 1015.3 1015.2 0.0
07/09:30am 21.5 18.9 6.2 37 7.7 NE 9 17 5 9 1015.6 1015.4 0.0
07/09:00am 19.8 16.5 6.2 41 6.8 ENE 13 17 7 9 1015.8 1015.6 0.0
07/08:30am 18.3 15.4 6.5 46 5.9 ENE 11 17 6 9 1016.2 1016.0 0.0
07/08:00am 16.9 14.0 6.4 50 5.2 ENE 11 15 6 8 1016.2 1016.0 0.0
07/07:30am 15.6 13.1 6.6 55 4.4 ENE 9 15 5 8 1016.0 1015.8 0.0
07/07:00am 14.6 12.4 6.4 58 4.0 E 7 9 4 5 1015.5 1015.3 0.0
07/06:30am 12.1 11.3 6.6 69 2.6 CALM 0 0 0 0 1015.0 1014.9 0.0
07/06:00am 11.7 9.5 6.2 69 2.6 ESE 7 9 4 5 1014.6 1014.5 0.0
07/05:30am 12.0 9.8 6.3 68 2.7 ESE 7 9 4 5 1014.2 1014.1 0.0
07/05:00am 12.8 9.8 6.2 64 3.1 SE 11 17 6 9 1013.8 1013.7 0.0
07/04:30am 12.8 10.3 6.6 66 3.0 SE 9 11 5 6 1013.7 1013.6 0.0
07/04:00am 13.6 10.3 6.2 61 3.5 SSE 13 17 7 9 1013.5 1013.4 0.0
07/03:30am 13.5 10.4 5.7 59 3.7 SE 11 13 6 7 1013.7 1013.6 0.0
07/03:00am 14.2 10.8 6.1 58 3.9 S 13 19 7 10 1014.2 1014.1 0.0
07/02:30am 14.2 11.2 6.1 58 3.9 SSE 11 15 6 8 1014.4 1014.3 0.0
07/02:00am 14.8 12.6 6.1 56 4.2 S 7 9 4 5 1014.8 1014.7 0.0
07/01:30am 15.3 12.7 6.1 54 4.4 S 9 11 5 6 1015.2 1015.1 0.0
07/01:00am 16.0 13.0 5.9 51 4.9 S 11 17 6 9 1015.3 1015.2 0.0
07/12:30am 17.0 12.5 5.9 48 5.4 S 19 28 10 15 1015.2 1015.1 0.0
07/12:00am 12.8 9.7 3.5 53 4.2 SW 9 19 5 10 1015.3 1015.2 0.0
 
Date/Time
CDT
Temp
°C
App
Temp
°C
Dew
Point
°C
Rel
Hum
%
Delta-T
°C
Wind Press
QNH
hPa
Press
MSL
hPa
Rain since
9am
mm
Dir  Spd
km/h
Gust
km/h
Spd
kts
Gust
kts
06/11:30pm 14.1 11.6 3.8 50 4.7 W 6 7 3 4 1015.3 1015.2 0.0
06/11:00pm 14.4 11.8 4.1 50 4.7 WSW 7 9 4 5 1015.3 1015.2 0.0
06/10:30pm 15.6 13.6 4.6 48 5.2 W 4 6 2 3 1015.2 1015.1 0.0
06/10:00pm 16.6 15.4 4.6 45 5.7 CALM 0 0 0 0 1015.3 1015.2 0.0
06/09:30pm 18.0 15.7 4.9 42 6.3 W 6 6 3 3 1015.2 1015.1 0.0
06/09:00pm 19.4 16.5 4.7 38 7.1 W 9 11 5 6 1015.2 1015.1 0.0
06/08:30pm 21.1 18.6 4.6 34 8.0 W 7 7 4 4 1015.1 1015.0 0.0
06/08:00pm 22.6 19.6 4.2 30 9.0 WSW 9 13 5 7 1014.9 1014.8 0.0
06/07:30pm 23.7 20.3 4.1 28 9.6 SW 11 15 6 8 1014.6 1014.5 0.0
06/07:00pm 24.2 20.5 4.6 28 9.8 SW 13 19 7 10 1014.2 1014.1 0.0
06/06:30pm 24.5 19.9 3.8 26 10.2 SW 17 24 9 13 1014.1 1014.0 0.0
06/06:00pm 24.2 21.0 2.9 25 10.3 SSW 9 17 5 9 1013.8 1013.7 0.0
06/05:30pm 24.1 20.1 2.9 25 10.2 SSW 13 17 7 9 1013.7 1013.6 0.0
06/05:00pm 24.2 20.2 2.9 25 10.3 SSW 13 19 7 10 1013.9 1013.8 0.0
06/04:30pm 24.3 20.3 3.0 25 10.3 S 13 17 7 9 1013.8 1013.7 0.0
06/04:00pm 24.3 19.6 3.0 25 10.3 S 17 26 9 14 1014.1 1014.0 0.0
06/03:30pm 23.5 19.1 2.9 26 9.9 S 15 24 8 13 1014.5 1014.4 0.0
06/03:00pm 23.4 19.8 2.8 26 9.9 S 11 20 6 11 1014.7 1014.6 0.0
06/02:30pm 23.9 20.6 2.7 25 10.2 SE 9 19 5 10 1014.9 1014.8 0.0
06/02:00pm 22.7 17.9 2.8 27 9.5 SSW 17 26 9 14 1015.5 1015.3 0.0
06/01:30pm 23.1 17.8 2.0 25 9.9 SSW 19 28 10 15 1015.3 1015.2 0.0
06/01:00pm 22.7 16.7 1.1 24 10.0 S 22 33 12 18 1015.5 1015.3 0.0
06/12:30pm 22.4 17.4 1.4 25 9.7 SSW 17 28 9 15 1015.8 1015.6 0.0
06/12:00pm 22.1 17.7 2.8 28 9.2 S 15 22 8 12 1015.9 1015.7 0.0
06/11:30am 21.1 17.8 4.6 34 8.0 SSW 11 20 6 11 1015.9 1015.7 0.0
06/11:00am 19.7 17.7 7.1 44 6.4 S 7 17 4 9 1016.2 1016.0 0.0
06/10:30am 18.9 16.3 7.7 48 5.7 ESE 11 20 6 11 1016.2 1016.0 0.0
06/10:00am 17.2 14.2 7.8 54 4.8 SE 13 19 7 10 1016.5 1016.3 0.0
06/09:30am 16.5 13.3 8.5 59 4.1 S 15 20 8 11 1016.5 1016.3 0.0
06/09:00am 15.0 11.3 8.0 63 3.5 S 17 22 9 12 1016.4 1016.2 1.6
06/08:30am 14.7 11.4 8.2 65 3.3 S 15 20 8 11 1016.3 1016.1 1.6
06/08:00am 14.7 12.2 8.0 64 3.3 S 11 17 6 9 1015.8 1015.6 1.6
06/07:30am 14.5 12.0 8.0 65 3.2 S 11 17 6 9 1015.9 1015.7 1.6
06/07:00am 14.4 13.4 8.8 69 2.8 SSW 4 7 2 4 1015.2 1015.1 1.6
06/06:30am 14.3 12.3 8.7 69 2.8 SSW 9 13 5 7 1014.9 1014.8 1.6
06/06:00am 14.3 12.3 8.7 69 2.8 SSW 9 13 5 7 1014.3 1014.2 1.6
06/05:30am 14.3 11.9 8.5 68 2.9 SW 11 17 6 9 1013.9 1013.8 1.6
06/05:00am 14.7 11.8 8.2 65 3.3 SSW 13 17 7 9 1014.1 1014.0 1.6
06/04:30am 14.4 12.3 8.4 67 3.0 S 9 13 5 7 1012.8 1012.7 1.6
06/04:00am 14.5 12.0 8.2 66 3.2 S 11 17 6 9 1012.6 1012.5 1.6
06/03:30am 14.6 12.1 8.3 66 3.2 S 11 15 6 8 1012.3 1012.2 1.6
06/03:00am 14.8 11.9 8.1 64 3.4 S 13 20 7 11 1012.0 1011.9 1.6
06/02:30am 15.2 11.9 8.0 62 3.6 S 15 22 8 12 1012.7 1012.6 1.6
06/02:00am 15.6 12.3 7.9 60 3.9 S 15 20 8 11 1012.8 1012.7 1.6
06/01:30am 15.8 12.8 7.8 59 4.0 SSW 13 19 7 10 1012.8 1012.7 1.6
06/01:00am 16.4 13.1 7.9 57 4.3 S 15 22 8 12 1013.2 1013.1 1.6
06/12:30am 17.0 13.6 7.6 54 4.7 S 15 24 8 13 1013.0 1012.9 1.6
06/12:00am 18.2 14.7 7.3 49 5.5 SSW 15 19 8 10 1013.2 1013.1 1.6
 
Date/Time
CDT
Temp
°C
App
Temp
°C
Dew
Point
°C
Rel
Hum
%
Delta-T
°C
Wind Press
QNH
hPa
Press
MSL
hPa
Rain since
9am
mm
Dir  Spd
km/h
Gust
km/h
Spd
kts
Gust
kts
05/11:30pm 18.0 15.5 6.5 47 5.7 SW 9 11 5 6 1013.2 1013.1 1.6
05/11:00pm 18.3 15.9 6.8 47 5.7 WSW 9 13 5 7 1013.4 1013.3 1.6
05/10:30pm 18.7 17.2 6.9 46 5.9 SSW 4 7 2 4 1013.3 1013.2 1.6
05/10:00pm 19.4 16.7 5.5 40 6.8 S 9 13 5 7 1012.9 1012.8 1.6
05/09:30pm 19.8 16.5 6.2 41 6.8 SSE 13 17 7 9 1012.3 1012.2 1.6
05/09:00pm 20.2 16.5 6.5 41 6.9 SSE 15 22 8 12 1011.8 1011.7 1.6
05/08:30pm 20.9 16.8 6.1 38 7.4 S 17 22 9 12 1012.4 1012.3 1.6
05/08:00pm 21.6 17.7 5.5 35 8.0 S 15 24 8 13 1012.2 1012.1 1.6
05/07:30pm 22.2 18.9 6.4 36 8.0 S 13 19 7 10 1012.7 1012.6 1.6
05/07:00pm 22.5 20.3 6.3 35 8.2 SSW 7 9 4 5 1012.6 1012.5 1.6
05/06:30pm 22.9 20.0 4.4 30 9.1 SSW 9 15 5 8 1012.3 1012.2 1.6

Other Formats:

Comma delimited format used in spreadsheet applications
http://www.bom.gov.au/fwo/IDS60801/IDS60801.95687.axf

JavaScript Object Notation format (JSON) in row-major order
http://www.bom.gov.au/fwo/IDS60801/IDS60801.95687.json